Wetterdaten vom Dienstag, 19. Januar 2021

Temperatur Taupunkt Windchill Luftfeuchte Luftdruck Solarstrahlung Regen ET
(Verdunstung von Wasser)
Wind
Max 3 °C
19:55
1.7 °C
20:10
2.7 °C
20:40
93%
16:20
1022.5 hPa
00:00
125 W/m²
13:00
26.7 km/h
13:40 km/h
Durchschnitt 1.8 °C -0.3 °C -3.2 °C 86% 1016.5 hPa 64 W/m² 2.4 mm 0.457 mm 13.1 km/h
Min 0.9 °C
04:55
-1.6 °C
08:05
-9.7 °C
13:40
79%
11:10
1012 hPa
14:05
11.3 km/h (Böe)
04:50 km/h
Zeit
00:00 1.9 °C -0.3 °C -3.8 °C 85% 1022.5 hPa 0 W/m² 0.0 mm 0.000 mm 13.5 km/h
00:05 1.9 °C -0.3 °C -4.0 °C 85% 1022.4 hPa 0 W/m² 0.0 mm 0.000 mm 13.9 km/h
00:10 1.9 °C -0.3 °C -3.5 °C 85% 1022.4 hPa 0 W/m² 0.0 mm 0.000 mm 13.0 km/h
00:15 1.9 °C -0.3 °C -3.5 °C 85% 1022.2 hPa 0 W/m² 0.0 mm 0.000 mm 13.1 km/h
00:20 1.9 °C -0.3 °C -4.6 °C 85% 1022.3 hPa 0 W/m² 0.0 mm 0.000 mm 14.8 km/h
00:25 1.9 °C -0.3 °C -6.1 °C 85% 1022.2 hPa 0 W/m² 0.0 mm 0.000 mm 17.6 km/h
00:30 1.9 °C -0.3 °C -5.2 °C 85% 1022.2 hPa 0 W/m² 0.0 mm 0.000 mm 16.0 km/h
00:35 1.9 °C -0.3 °C -2.6 °C 85% 1022.3 hPa 0 W/m² 0.0 mm 0.000 mm 11.7 km/h
00:40 1.9 °C -0.5 °C -4.7 °C 84% 1022.2 hPa 0 W/m² 0.0 mm 0.000 mm 15.1 km/h
00:45 1.9 °C -0.5 °C -4.3 °C 84% 1022.5 hPa 0 W/m² 0.0 mm 0.000 mm 14.3 km/h
00:50 1.9 °C -0.3 °C -4.2 °C 85% 1022.2 hPa 0 W/m² 0.0 mm 0.000 mm 14.2 km/h
00:55 1.9 °C -0.5 °C -5.0 °C 84% 1022.1 hPa 0 W/m² 0.0 mm 0.000 mm 15.6 km/h
01:00 1.9 °C -0.3 °C -2.3 °C 85% 1022.0 hPa 0 W/m² 0.0 mm 0.025 mm 11.3 km/h
01:05 1.8 °C -0.4 °C -2.1 °C 85% 1022.1 hPa 0 W/m² 0.0 mm 0.000 mm 10.9 km/h
01:10 1.8 °C -0.6 °C -5.3 °C 84% 1022.1 hPa 0 W/m² 0.0 mm 0.000 mm 15.9 km/h
01:15 1.8 °C -0.6 °C -2.9 °C 84% 1022.1 hPa 0 W/m² 0.0 mm 0.000 mm 11.9 km/h
01:20 1.8 °C -0.6 °C -3.7 °C 84% 1022.1 hPa 0 W/m² 0.0 mm 0.000 mm 13.1 km/h
01:25 1.9 °C -0.5 °C -4.7 °C 84% 1022.2 hPa 0 W/m² 0.0 mm 0.000 mm 15.1 km/h
01:30 1.9 °C -0.5 °C -1.4 °C 84% 1022.0 hPa 0 W/m² 0.0 mm 0.000 mm 10.0 km/h
01:35 1.8 °C -0.6 °C -4.3 °C 84% 1022.0 hPa 0 W/m² 0.0 mm 0.000 mm 14.2 km/h
01:40 1.8 °C -0.6 °C -4.6 °C 84% 1021.9 hPa 0 W/m² 0.0 mm 0.000 mm 14.7 km/h
01:45 1.8 °C -0.6 °C -2.9 °C 84% 1021.9 hPa 0 W/m² 0.0 mm 0.000 mm 12.0 km/h
01:50 1.8 °C -0.6 °C -5.7 °C 84% 1022.1 hPa 0 W/m² 0.0 mm 0.000 mm 16.7 km/h
01:55 1.8 °C -0.6 °C -1.4 °C 84% 1021.9 hPa 0 W/m² 0.0 mm 0.000 mm 9.9 km/h
02:00 1.8 °C -0.6 °C -2.2 °C 84% 1021.8 hPa 0 W/m² 0.0 mm 0.026 mm 11.0 km/h
02:05 1.7 °C -0.7 °C -5.0 °C 84% 1021.8 hPa 0 W/m² 0.0 mm 0.000 mm 15.1 km/h
02:10 1.7 °C -0.7 °C -2.9 °C 84% 1021.6 hPa 0 W/m² 0.0 mm 0.000 mm 11.8 km/h
02:15 1.7 °C -0.5 °C -0.6 °C 85% 1021.5 hPa 0 W/m² 0.0 mm 0.000 mm 8.8 km/h
02:20 1.7 °C -0.5 °C -2.9 °C 85% 1021.5 hPa 0 W/m² 0.0 mm 0.000 mm 11.8 km/h
02:25 1.6 °C -0.6 °C -1.3 °C 85% 1021.5 hPa 0 W/m² 0.0 mm 0.000 mm 9.5 km/h
02:30 1.6 °C -0.8 °C -5.6 °C 84% 1021.4 hPa 0 W/m² 0.0 mm 0.000 mm 16.0 km/h
02:35 1.7 °C -0.7 °C -2.8 °C 84% 1021.2 hPa 0 W/m² 0.0 mm 0.000 mm 11.7 km/h
02:40 1.7 °C -0.7 °C -3.6 °C 84% 1021.4 hPa 0 W/m² 0.0 mm 0.000 mm 12.8 km/h
02:45 1.7 °C -0.7 °C -6.4 °C 84% 1021.2 hPa 0 W/m² 0.0 mm 0.000 mm 17.8 km/h
02:50 1.7 °C -0.7 °C -4.4 °C 84% 1021.0 hPa 0 W/m² 0.0 mm 0.000 mm 14.1 km/h
02:55 1.7 °C -0.7 °C -7.1 °C 84% 1021.2 hPa 0 W/m² 0.0 mm 0.000 mm 19.3 km/h
03:00 1.6 °C -0.8 °C -6.0 °C 84% 1021.1 hPa 0 W/m² 0.0 mm 0.025 mm 16.8 km/h
03:05 1.6 °C -1.0 °C -6.2 °C 83% 1021.1 hPa 0 W/m² 0.0 mm 0.000 mm 17.1 km/h
03:10 1.5 °C -0.9 °C -2.8 °C 84% 1021.2 hPa 0 W/m² 0.0 mm 0.000 mm 11.3 km/h
03:15 1.5 °C -0.9 °C -3.1 °C 84% 1021.1 hPa 0 W/m² 0.0 mm 0.000 mm 11.7 km/h
03:20 1.4 °C -1.0 °C -4.6 °C 84% 1021.1 hPa 0 W/m² 0.0 mm 0.000 mm 13.9 km/h
03:25 1.4 °C -1.0 °C -4.9 °C 84% 1021.0 hPa 0 W/m² 0.0 mm 0.000 mm 14.3 km/h
03:30 1.3 °C -1.1 °C -3.6 °C 84% 1021.0 hPa 0 W/m² 0.0 mm 0.000 mm 12.1 km/h
03:35 1.3 °C -1.1 °C -1.2 °C 84% 1021.1 hPa 0 W/m² 0.0 mm 0.000 mm 9.0 km/h
03:40 1.2 °C -1.2 °C -2.0 °C 84% 1020.9 hPa 0 W/m² 0.0 mm 0.000 mm 9.9 km/h
03:45 1.2 °C -1.0 °C -1.9 °C 85% 1020.9 hPa 0 W/m² 0.0 mm 0.000 mm 9.7 km/h
03:50 1.1 °C -1.3 °C 0.3 °C 84% 1020.9 hPa 0 W/m² 0.0 mm 0.000 mm 7.2 km/h
03:55 1.1 °C -1.1 °C 1.1 °C 85% 1020.9 hPa 0 W/m² 0.0 mm 0.000 mm 5.2 km/h
04:00 1.1 °C -1.1 °C 0.9 °C 85% 1021.0 hPa 0 W/m² 0.0 mm 0.026 mm 6.6 km/h
04:05 1.1 °C -1.1 °C -1.6 °C 85% 1020.7 hPa 0 W/m² 0.0 mm 0.000 mm 9.2 km/h
04:10 1.1 °C -1.1 °C 0.2 °C 85% 1020.8 hPa 0 W/m² 0.0 mm 0.000 mm 7.3 km/h
04:15 1.1 °C -1.1 °C 1.1 °C 85% 1020.8 hPa 0 W/m² 0.0 mm 0.000 mm 6.3 km/h
04:20 1.2 °C -1.0 °C 1.2 °C 85% 1020.7 hPa 0 W/m² 0.0 mm 0.000 mm 5.3 km/h
04:25 1.1 °C -1.1 °C 1.1 °C 85% 1020.8 hPa 0 W/m² 0.0 mm 0.000 mm 5.8 km/h
04:30 1.1 °C -1.1 °C 1.1 °C 85% 1020.5 hPa 0 W/m² 0.0 mm 0.000 mm 5.3 km/h
04:35 1.1 °C -1.1 °C 1.1 °C 85% 1020.6 hPa 0 W/m² 0.0 mm 0.000 mm 4.6 km/h
04:40 1.0 °C -1.2 °C -0.0 °C 85% 1020.6 hPa 0 W/m² 0.0 mm 0.000 mm 7.4 km/h
04:45 1.0 °C -1.1 °C 0.1 °C 86% 1020.4 hPa 0 W/m² 0.0 mm 0.000 mm 7.3 km/h
04:50 1.0 °C -1.1 °C 1.0 °C 86% 1020.3 hPa 0 W/m² 0.0 mm 0.000 mm 3.8 km/h
04:55 1.0 °C -1.1 °C 0.7 °C 86% 1020.2 hPa 0 W/m² 0.0 mm 0.000 mm 6.7 km/h
05:00 1.0 °C -1.1 °C -0.6 °C 86% 1020.2 hPa 0 W/m² 0.0 mm 0.000 mm 8.0 km/h
05:05 1.0 °C -1.1 °C 0.2 °C 86% 1020.4 hPa 0 W/m² 0.0 mm 0.000 mm 7.2 km/h
05:10 0.9 °C -1.2 °C 0.8 °C 86% 1020.2 hPa 0 W/m² 0.0 mm 0.000 mm 6.5 km/h
05:15 0.9 °C -1.2 °C 0.9 °C 86% 1020.2 hPa 0 W/m² 0.0 mm 0.000 mm 4.6 km/h
05:20 0.9 °C -1.2 °C 0.3 °C 86% 1020.2 hPa 0 W/m² 0.0 mm 0.000 mm 7.0 km/h
05:25 1.0 °C -1.1 °C -0.4 °C 86% 1020.1 hPa 0 W/m² 0.0 mm 0.000 mm 7.8 km/h
05:30 1.0 °C -1.1 °C 1.0 °C 86% 1020.1 hPa 0 W/m² 0.0 mm 0.000 mm 5.8 km/h
05:35 1.0 °C -1.2 °C 1.0 °C 85% 1020.1 hPa 0 W/m² 0.0 mm 0.000 mm 6.1 km/h
05:40 1.0 °C -1.2 °C -0.0 °C 85% 1020.0 hPa 0 W/m² 0.0 mm 0.000 mm 7.4 km/h
05:45 1.1 °C -1.1 °C -2.5 °C 85% 1019.9 hPa 0 W/m² 0.0 mm 0.000 mm 10.3 km/h
05:50 1.1 °C -1.3 °C 0.8 °C 84% 1019.8 hPa 0 W/m² 0.0 mm 0.000 mm 6.7 km/h
05:55 1.1 °C -1.3 °C 0.4 °C 84% 1019.6 hPa 0 W/m² 0.0 mm 0.000 mm 7.1 km/h
06:00 1.1 °C -1.3 °C 1.1 °C 84% 1019.5 hPa 0 W/m² 0.0 mm 0.000 mm 6.1 km/h
06:05 1.2 °C -1.2 °C 1.1 °C 84% 1019.5 hPa 0 W/m² 0.0 mm 0.000 mm 6.5 km/h
06:10 1.2 °C -1.4 °C 0.2 °C 83% 1019.6 hPa 0 W/m² 0.0 mm 0.000 mm 7.4 km/h
06:15 1.2 °C -1.4 °C 0.2 °C 83% 1019.5 hPa 0 W/m² 0.0 mm 0.000 mm 7.4 km/h
06:20 1.2 °C -1.4 °C 1.2 °C 83% 1019.4 hPa 0 W/m² 0.0 mm 0.000 mm 6.3 km/h
06:25 1.2 °C -1.4 °C 1.2 °C 83% 1019.3 hPa 0 W/m² 0.0 mm 0.000 mm 5.9 km/h
06:30 1.2 °C -1.4 °C 1.2 °C 83% 1019.3 hPa 0 W/m² 0.0 mm 0.000 mm 5.3 km/h
06:35 1.2 °C -1.4 °C -1.7 °C 83% 1019.3 hPa 0 W/m² 0.0 mm 0.000 mm 9.5 km/h
06:40 1.2 °C -1.4 °C -0.5 °C 83% 1019.1 hPa 0 W/m² 0.0 mm 0.000 mm 8.1 km/h
06:45 1.2 °C -1.4 °C -0.7 °C 83% 1019.1 hPa 0 W/m² 0.0 mm 0.000 mm 8.3 km/h
06:50 1.2 °C -1.4 °C -1.0 °C 83% 1019.1 hPa 0 W/m² 0.0 mm 0.000 mm 8.7 km/h
06:55 1.1 °C -1.5 °C -0.8 °C 83% 1019.0 hPa 0 W/m² 0.0 mm 0.000 mm 8.3 km/h
07:00 1.1 °C -1.5 °C -1.0 °C 83% 1018.9 hPa 0 W/m² 0.0 mm 0.000 mm 8.5 km/h
07:05 1.1 °C -1.5 °C -0.9 °C 83% 1018.6 hPa 0 W/m² 0.0 mm 0.025 mm 8.4 km/h
07:10 1.1 °C -1.5 °C 0.2 °C 83% 1018.7 hPa 0 W/m² 0.0 mm 0.000 mm 7.3 km/h
07:15 1.1 °C -1.5 °C -1.4 °C 83% 1018.6 hPa 0 W/m² 0.0 mm 0.000 mm 9.0 km/h
07:20 1.1 °C -1.5 °C 0.5 °C 83% 1018.5 hPa 0 W/m² 0.0 mm 0.000 mm 7.0 km/h
07:25 1.1 °C -1.5 °C -2.1 °C 83% 1018.5 hPa 0 W/m² 0.0 mm 0.000 mm 9.8 km/h
07:30 1.1 °C -1.5 °C -0.6 °C 83% 1018.5 hPa 0 W/m² 0.0 mm 0.000 mm 8.1 km/h
07:35 1.1 °C -1.5 °C -3.1 °C 83% 1018.5 hPa 0 W/m² 0.0 mm 0.000 mm 11.1 km/h
07:40 1.1 °C -1.5 °C -0.4 °C 83% 1018.4 hPa 0 W/m² 0.0 mm 0.000 mm 7.9 km/h
07:45 1.1 °C -1.5 °C 0.5 °C 83% 1018.4 hPa 0 W/m² 0.0 mm 0.000 mm 7.0 km/h
07:50 1.1 °C -1.5 °C 0.5 °C 83% 1018.3 hPa 0 W/m² 0.0 mm 0.000 mm 7.0 km/h
07:55 1.1 °C -1.5 °C 1.1 °C 83% 1018.1 hPa 0 W/m² 0.0 mm 0.000 mm 5.8 km/h
08:00 1.1 °C -1.5 °C 0.8 °C 83% 1018.1 hPa 0 W/m² 0.0 mm 0.000 mm 6.7 km/h
08:05 1.1 °C -1.6 °C -2.1 °C 82% 1018.0 hPa 0 W/m² 0.0 mm 0.000 mm 9.8 km/h
08:10 1.2 °C -1.5 °C -0.6 °C 82% 1018.0 hPa 0 W/m² 0.0 mm 0.000 mm 8.2 km/h
08:15 1.2 °C -1.5 °C 0.3 °C 82% 1017.9 hPa 0 W/m² 0.0 mm 0.000 mm 7.3 km/h
08:20 1.2 °C -1.5 °C 1.2 °C 82% 1017.9 hPa 2 W/m² 0.0 mm 0.000 mm 6.0 km/h
08:25 1.2 °C -1.5 °C -0.8 °C 82% 1017.8 hPa 6 W/m² 0.0 mm 0.000 mm 8.4 km/h
08:30 1.2 °C -1.5 °C -2.5 °C 82% 1017.6 hPa 10 W/m² 0.0 mm 0.000 mm 10.5 km/h
08:35 1.3 °C -1.4 °C -2.3 °C 82% 1017.7 hPa 13 W/m² 0.0 mm 0.000 mm 10.4 km/h
08:40 1.3 °C -1.6 °C -4.4 °C 81% 1017.6 hPa 18 W/m² 0.0 mm 0.000 mm 13.3 km/h
08:45 1.3 °C -1.6 °C -0.6 °C 81% 1017.6 hPa 19 W/m² 0.0 mm 0.000 mm 8.3 km/h
08:50 1.3 °C -1.6 °C -2.2 °C 81% 1017.5 hPa 20 W/m² 0.0 mm 0.000 mm 10.2 km/h
08:55 1.3 °C -1.6 °C -1.4 °C 81% 1017.5 hPa 26 W/m² 0.0 mm 0.000 mm 9.3 km/h
09:00 1.3 °C -1.6 °C -0.7 °C 81% 1017.6 hPa 27 W/m² 0.0 mm 0.025 mm 8.5 km/h
09:05 1.3 °C -1.6 °C -0.4 °C 81% 1017.4 hPa 25 W/m² 0.0 mm 0.000 mm 8.1 km/h
09:10 1.4 °C -1.5 °C -2.1 °C 81% 1017.4 hPa 28 W/m² 0.0 mm 0.000 mm 10.2 km/h
09:15 1.4 °C -1.5 °C -3.0 °C 81% 1017.1 hPa 36 W/m² 0.0 mm 0.000 mm 11.5 km/h
09:20 1.4 °C -1.5 °C -0.1 °C 81% 1017.0 hPa 44 W/m² 0.0 mm 0.000 mm 7.9 km/h
09:25 1.4 °C -1.5 °C -2.5 °C 81% 1017.1 hPa 46 W/m² 0.0 mm 0.000 mm 10.8 km/h
09:30 1.4 °C -1.5 °C -0.5 °C 81% 1016.9 hPa 49 W/m² 0.0 mm 0.000 mm 8.3 km/h
09:35 1.4 °C -1.5 °C -2.1 °C 81% 1016.8 hPa 55 W/m² 0.0 mm 0.000 mm 10.3 km/h
09:40 1.5 °C -1.4 °C -2.4 °C 81% 1016.9 hPa 56 W/m² 0.0 mm 0.000 mm 10.8 km/h
09:45 1.5 °C -1.4 °C -1.6 °C 81% 1016.7 hPa 56 W/m² 0.0 mm 0.000 mm 9.7 km/h
09:50 1.6 °C -1.3 °C -0.6 °C 81% 1016.6 hPa 60 W/m² 0.0 mm 0.000 mm 8.7 km/h
09:55 1.6 °C -1.3 °C -2.0 °C 81% 1016.5 hPa 62 W/m² 0.0 mm 0.000 mm 10.4 km/h
10:00 1.6 °C -1.3 °C -3.2 °C 81% 1016.6 hPa 72 W/m² 0.0 mm 0.026 mm 12.1 km/h
10:05 1.7 °C -1.2 °C -1.0 °C 81% 1016.6 hPa 75 W/m² 0.0 mm 0.000 mm 9.3 km/h
10:10 1.7 °C -1.4 °C -3.0 °C 80% 1016.3 hPa 77 W/m² 0.0 mm 0.000 mm 12.0 km/h
10:15 1.7 °C -1.4 °C -3.2 °C 80% 1016.3 hPa 79 W/m² 0.0 mm 0.000 mm 12.2 km/h
10:20 1.8 °C -1.3 °C -3.2 °C 80% 1016.2 hPa 79 W/m² 0.0 mm 0.000 mm 12.4 km/h
10:25 1.8 °C -1.3 °C -2.5 °C 80% 1016.1 hPa 83 W/m² 0.0 mm 0.000 mm 11.4 km/h
10:30 1.8 °C -1.3 °C -3.1 °C 80% 1016.0 hPa 94 W/m² 0.0 mm 0.000 mm 12.2 km/h
10:35 1.9 °C -1.2 °C -2.4 °C 80% 1016.2 hPa 96 W/m² 0.0 mm 0.000 mm 11.4 km/h
10:40 1.9 °C -1.2 °C -3.7 °C 80% 1016.1 hPa 91 W/m² 0.0 mm 0.000 mm 13.4 km/h
10:45 2.0 °C -1.1 °C -1.5 °C 80% 1015.9 hPa 92 W/m² 0.0 mm 0.000 mm 10.3 km/h
10:50 2.0 °C -1.1 °C -4.3 °C 80% 1015.7 hPa 91 W/m² 0.0 mm 0.000 mm 14.6 km/h
10:55 2.1 °C -1.0 °C -5.0 °C 80% 1015.7 hPa 100 W/m² 0.0 mm 0.000 mm 16.1 km/h
11:00 2.1 °C -1.0 °C -3.0 °C 80% 1015.7 hPa 111 W/m² 0.0 mm 0.051 mm 12.6 km/h
11:05 2.1 °C -1.0 °C -4.6 °C 80% 1015.6 hPa 114 W/m² 0.0 mm 0.000 mm 15.3 km/h
11:10 2.2 °C -1.1 °C -4.8 °C 79% 1015.4 hPa 121 W/m² 0.0 mm 0.000 mm 15.9 km/h
11:15 2.2 °C -1.1 °C -1.9 °C 79% 1015.2 hPa 115 W/m² 0.0 mm 0.000 mm 11.2 km/h
11:20 2.2 °C -1.1 °C -3.9 °C 79% 1015.1 hPa 108 W/m² 0.0 mm 0.000 mm 14.3 km/h
11:25 2.2 °C -1.1 °C -3.8 °C 79% 1015.1 hPa 107 W/m² 0.0 mm 0.000 mm 14.1 km/h
11:30 2.2 °C -1.1 °C -4.6 °C 79% 1014.7 hPa 106 W/m² 0.0 mm 0.000 mm 15.5 km/h
11:35 2.2 °C -1.1 °C -6.2 °C 79% 1014.7 hPa 83 W/m² 0.0 mm 0.000 mm 18.6 km/h
11:40 2.2 °C -0.9 °C -4.4 °C 80% 1014.8 hPa 84 W/m² 0.0 mm 0.000 mm 15.1 km/h
11:45 2.2 °C -0.9 °C -6.6 °C 80% 1014.7 hPa 79 W/m² 0.0 mm 0.000 mm 19.6 km/h
11:50 2.2 °C -0.9 °C -6.7 °C 80% 1014.7 hPa 81 W/m² 0.0 mm 0.000 mm 19.7 km/h
11:55 2.1 °C -0.8 °C -4.1 °C 81% 1014.7 hPa 82 W/m² 0.0 mm 0.000 mm 14.4 km/h
12:00 2.0 °C -0.7 °C -6.4 °C 82% 1014.5 hPa 83 W/m² 0.0 mm 0.050 mm 18.5 km/h
12:05 1.9 °C -0.7 °C -5.4 °C 83% 1014.5 hPa 78 W/m² 0.0 mm 0.000 mm 16.4 km/h
12:10 1.9 °C -0.7 °C -7.4 °C 83% 1014.3 hPa 67 W/m² 0.0 mm 0.000 mm 20.5 km/h
12:15 1.9 °C -0.7 °C -4.4 °C 83% 1014.2 hPa 66 W/m² 0.0 mm 0.000 mm 14.5 km/h
12:20 1.9 °C -0.5 °C -4.6 °C 84% 1014.0 hPa 86 W/m² 0.0 mm 0.000 mm 14.8 km/h
12:25 1.9 °C -0.7 °C -5.1 °C 83% 1013.9 hPa 104 W/m² 0.0 mm 0.000 mm 15.8 km/h
12:30 2.1 °C -0.5 °C -5.3 °C 83% 1013.7 hPa 105 W/m² 0.0 mm 0.000 mm 16.6 km/h
12:35 2.2 °C -0.4 °C -4.0 °C 83% 1013.6 hPa 95 W/m² 0.0 mm 0.000 mm 14.4 km/h
12:40 2.2 °C -0.5 °C -6.0 °C 82% 1013.3 hPa 99 W/m² 0.0 mm 0.000 mm 18.2 km/h
12:45 2.2 °C -0.5 °C -6.6 °C 82% 1013.2 hPa 105 W/m² 0.0 mm 0.000 mm 19.6 km/h
12:50 2.3 °C -0.4 °C -5.2 °C 82% 1013.0 hPa 100 W/m² 0.0 mm 0.000 mm 16.8 km/h
12:55 2.3 °C -0.4 °C -6.2 °C 82% 1013.0 hPa 108 W/m² 0.0 mm 0.000 mm 18.9 km/h
13:00 2.3 °C -0.4 °C -5.5 °C 82% 1012.9 hPa 125 W/m² 0.0 mm 0.051 mm 17.4 km/h
13:05 2.3 °C -0.4 °C -6.9 °C 82% 1012.8 hPa 117 W/m² 0.0 mm 0.000 mm 20.6 km/h
13:10 2.3 °C -0.4 °C -5.7 °C 82% 1012.8 hPa 117 W/m² 0.0 mm 0.000 mm 17.9 km/h
13:15 2.3 °C -0.3 °C -6.4 °C 83% 1012.8 hPa 106 W/m² 0.0 mm 0.000 mm 19.5 km/h
13:20 2.3 °C -0.3 °C -7.6 °C 83% 1012.6 hPa 93 W/m² 0.0 mm 0.000 mm 22.2 km/h
13:25 2.2 °C -0.4 °C -6.3 °C 83% 1012.6 hPa 96 W/m² 0.0 mm 0.000 mm 18.9 km/h
13:30 2.1 °C -0.3 °C -6.3 °C 84% 1012.4 hPa 109 W/m² 0.0 mm 0.000 mm 18.7 km/h
13:35 2.0 °C -0.3 °C -6.2 °C 85% 1012.4 hPa 123 W/m² 0.0 mm 0.000 mm 18.1 km/h
13:40 1.9 °C -0.2 °C -9.7 °C 86% 1012.3 hPa 111 W/m² 0.3 mm 0.000 mm 26.7 km/h
13:45 1.8 °C -0.1 °C -8.2 °C 87% 1012.3 hPa 83 W/m² 0.0 mm 0.000 mm 22.2 km/h
13:50 1.6 °C -0.2 °C -8.6 °C 88% 1012.3 hPa 82 W/m² 0.0 mm 0.000 mm 22.4 km/h
13:55 1.6 °C -0.0 °C -6.3 °C 89% 1012.2 hPa 78 W/m² 0.3 mm 0.000 mm 17.4 km/h
14:00 1.4 °C -0.2 °C -8.0 °C 89% 1012.2 hPa 77 W/m² 0.0 mm 0.051 mm 20.4 km/h
14:05 1.4 °C -0.1 °C -6.8 °C 90% 1012.0 hPa 80 W/m² 0.3 mm 0.000 mm 17.9 km/h
14:10 1.4 °C -0.1 °C -8.3 °C 90% 1012.1 hPa 72 W/m² 0.0 mm 0.000 mm 21.0 km/h
14:15 1.4 °C -0.1 °C -8.3 °C 90% 1012.1 hPa 69 W/m² 0.0 mm 0.000 mm 21.1 km/h
14:20 1.4 °C -0.1 °C -6.3 °C 90% 1012.2 hPa 56 W/m² 0.3 mm 0.000 mm 16.9 km/h
14:25 1.3 °C -0.2 °C -6.6 °C 90% 1012.1 hPa 46 W/m² 0.0 mm 0.000 mm 17.2 km/h
14:30 1.3 °C -0.0 °C -7.1 °C 91% 1012.2 hPa 45 W/m² 0.0 mm 0.000 mm 18.1 km/h
14:35 1.3 °C -0.0 °C -6.5 °C 91% 1012.2 hPa 43 W/m² 0.3 mm 0.000 mm 17.0 km/h
14:40 1.3 °C -0.0 °C -7.7 °C 91% 1012.0 hPa 51 W/m² 0.0 mm 0.000 mm 19.5 km/h
14:45 1.4 °C 0.1 °C -6.4 °C 91% 1012.1 hPa 54 W/m² 0.0 mm 0.000 mm 17.0 km/h
14:50 1.4 °C 0.1 °C -5.3 °C 91% 1012.0 hPa 47 W/m² 0.0 mm 0.000 mm 15.1 km/h
14:55 1.4 °C 0.1 °C -7.3 °C 91% 1012.0 hPa 43 W/m² 0.0 mm 0.000 mm 18.8 km/h
15:00 1.5 °C 0.3 °C -6.1 °C 92% 1012.1 hPa 42 W/m² 0.0 mm 0.025 mm 16.7 km/h
15:05 1.6 °C 0.4 °C -6.1 °C 92% 1012.2 hPa 45 W/m² 0.3 mm 0.000 mm 17.0 km/h
15:10 1.6 °C 0.4 °C -6.0 °C 92% 1012.3 hPa 49 W/m² 0.0 mm 0.000 mm 16.7 km/h
15:15 1.7 °C 0.5 °C -3.5 °C 92% 1012.1 hPa 42 W/m² 0.0 mm 0.000 mm 12.7 km/h
15:20 1.7 °C 0.5 °C -4.0 °C 92% 1012.2 hPa 35 W/m² 0.0 mm 0.000 mm 13.5 km/h
15:25 1.7 °C 0.5 °C -5.8 °C 92% 1012.1 hPa 37 W/m² 0.0 mm 0.000 mm 16.6 km/h
15:30 1.8 °C 0.6 °C -5.9 °C 92% 1012.2 hPa 37 W/m² 0.0 mm 0.000 mm 17.1 km/h
15:35 1.8 °C 0.6 °C -7.6 °C 92% 1012.2 hPa 34 W/m² 0.3 mm 0.000 mm 20.7 km/h
15:40 1.8 °C 0.6 °C -7.9 °C 92% 1012.2 hPa 25 W/m² 0.0 mm 0.000 mm 21.5 km/h
15:45 1.9 °C 0.7 °C -7.1 °C 92% 1012.3 hPa 25 W/m² 0.0 mm 0.000 mm 19.8 km/h
15:50 1.9 °C 0.7 °C -6.6 °C 92% 1012.2 hPa 20 W/m² 0.0 mm 0.000 mm 18.8 km/h
15:55 1.9 °C 0.7 °C -7.7 °C 92% 1012.3 hPa 17 W/m² 0.0 mm 0.000 mm 21.2 km/h
16:00 1.9 °C 0.7 °C -5.7 °C 92% 1012.3 hPa 18 W/m² 0.0 mm 0.000 mm 16.9 km/h
16:05 2.0 °C 0.8 °C -7.3 °C 92% 1012.3 hPa 12 W/m² 0.0 mm 0.026 mm 20.5 km/h
16:10 2.0 °C 0.8 °C -6.1 °C 92% 1012.4 hPa 9 W/m² 0.0 mm 0.000 mm 18.0 km/h
16:15 2.0 °C 0.8 °C -4.3 °C 92% 1012.5 hPa 7 W/m² 0.0 mm 0.000 mm 14.6 km/h
16:20 2.0 °C 1.0 °C -5.4 °C 93% 1012.5 hPa 8 W/m² 0.0 mm 0.000 mm 16.5 km/h
16:25 2.1 °C 0.9 °C -6.4 °C 92% 1012.5 hPa 8 W/m² 0.0 mm 0.000 mm 18.8 km/h
16:30 2.1 °C 0.9 °C -8.6 °C 92% 1012.5 hPa 6 W/m² 0.0 mm 0.000 mm 24.2 km/h
16:35 2.1 °C 0.9 °C -7.3 °C 92% 1012.7 hPa 3 W/m² 0.0 mm 0.000 mm 20.8 km/h
16:40 2.1 °C 0.9 °C -7.0 °C 92% 1012.7 hPa 0 W/m² 0.0 mm 0.000 mm 20.2 km/h
16:45 2.1 °C 1.1 °C -6.8 °C 93% 1012.7 hPa 0 W/m² 0.0 mm 0.000 mm 19.8 km/h
16:50 2.2 °C 1.2 °C -6.8 °C 93% 1012.6 hPa 0 W/m² 0.0 mm 0.000 mm 20.0 km/h
16:55 2.2 °C 1.2 °C -6.1 °C 93% 1012.8 hPa 0 W/m² 0.3 mm 0.000 mm 18.4 km/h
17:00 2.2 °C 1.2 °C -7.0 °C 93% 1012.9 hPa 0 W/m² 0.0 mm 0.025 mm 20.5 km/h
17:05 2.2 °C 1.2 °C -7.1 °C 93% 1012.9 hPa 0 W/m² 0.0 mm 0.000 mm 20.7 km/h
17:10 2.2 °C 1.2 °C -5.8 °C 93% 1013.0 hPa 0 W/m² 0.0 mm 0.000 mm 17.8 km/h
17:15 2.2 °C 1.2 °C -7.0 °C 93% 1013.0 hPa 0 W/m² 0.0 mm 0.000 mm 20.6 km/h
17:20 2.2 °C 1.2 °C -4.1 °C 93% 1012.9 hPa 0 W/m² 0.0 mm 0.000 mm 14.7 km/h
17:25 2.2 °C 1.2 °C -6.0 °C 93% 1013.1 hPa 0 W/m² 0.0 mm 0.000 mm 18.3 km/h
17:30 2.3 °C 1.3 °C -4.3 °C 93% 1013.1 hPa 0 W/m² 0.0 mm 0.000 mm 15.2 km/h
17:35 2.3 °C 1.3 °C -6.2 °C 93% 1013.1 hPa 0 W/m² 0.0 mm 0.000 mm 18.9 km/h
17:40 2.3 °C 1.3 °C -4.8 °C 93% 1013.3 hPa 0 W/m² 0.0 mm 0.000 mm 16.2 km/h
17:45 2.3 °C 1.3 °C -5.1 °C 93% 1013.2 hPa 0 W/m² 0.0 mm 0.000 mm 16.7 km/h
17:50 2.3 °C 1.3 °C -5.6 °C 93% 1013.3 hPa 0 W/m² 0.0 mm 0.000 mm 17.6 km/h
17:55 2.3 °C 1.3 °C -3.4 °C 93% 1013.3 hPa 0 W/m² 0.0 mm 0.000 mm 13.7 km/h
18:00 2.3 °C 1.3 °C -7.1 °C 93% 1013.4 hPa 0 W/m² 0.0 mm 0.000 mm 21.1 km/h
18:05 2.3 °C 1.1 °C -3.9 °C 92% 1013.2 hPa 0 W/m² 0.0 mm 0.000 mm 14.4 km/h
18:10 2.4 °C 1.2 °C -3.8 °C 92% 1013.4 hPa 0 W/m² 0.0 mm 0.000 mm 14.6 km/h
18:15 2.4 °C 1.2 °C -2.7 °C 92% 1013.3 hPa 0 W/m² 0.0 mm 0.000 mm 12.7 km/h
18:20 2.4 °C 1.2 °C -4.4 °C 92% 1013.3 hPa 0 W/m² 0.0 mm 0.000 mm 15.6 km/h
18:25 2.4 °C 1.2 °C -4.2 °C 92% 1013.3 hPa 0 W/m² 0.0 mm 0.000 mm 15.3 km/h
18:30 2.5 °C 1.3 °C -5.5 °C 92% 1013.3 hPa 0 W/m² 0.0 mm 0.000 mm 18.0 km/h
18:35 2.6 °C 1.3 °C -3.2 °C 91% 1013.2 hPa 0 W/m² 0.0 mm 0.000 mm 13.9 km/h
18:40 2.6 °C 1.3 °C -2.1 °C 91% 1013.2 hPa 0 W/m² 0.0 mm 0.000 mm 12.1 km/h
18:45 2.6 °C 1.3 °C -3.6 °C 91% 1013.0 hPa 0 W/m² 0.0 mm 0.000 mm 14.6 km/h
18:50 2.6 °C 1.3 °C -2.7 °C 91% 1013.2 hPa 0 W/m² 0.0 mm 0.000 mm 13.0 km/h
18:55 2.7 °C 1.4 °C -0.8 °C 91% 1013.3 hPa 0 W/m² 0.0 mm 0.000 mm 10.4 km/h
19:00 2.7 °C 1.4 °C -4.7 °C 91% 1013.1 hPa 0 W/m² 0.0 mm 0.000 mm 16.9 km/h
19:05 2.7 °C 1.4 °C -2.8 °C 91% 1013.2 hPa 0 W/m² 0.0 mm 0.000 mm 13.5 km/h
19:10 2.8 °C 1.5 °C -1.6 °C 91% 1013.3 hPa 0 W/m² 0.0 mm 0.000 mm 11.7 km/h
19:15 2.8 °C 1.5 °C -3.7 °C 91% 1013.4 hPa 0 W/m² 0.0 mm 0.000 mm 15.2 km/h
19:20 2.8 °C 1.5 °C -1.3 °C 91% 1013.4 hPa 0 W/m² 0.0 mm 0.000 mm 11.3 km/h
19:25 2.8 °C 1.5 °C -2.6 °C 91% 1013.6 hPa 0 W/m² 0.0 mm 0.000 mm 13.3 km/h
19:30 2.8 °C 1.5 °C -1.7 °C 91% 1013.5 hPa 0 W/m² 0.0 mm 0.000 mm 11.9 km/h
19:35 2.8 °C 1.5 °C -0.4 °C 91% 1013.6 hPa 0 W/m² 0.0 mm 0.000 mm 10.0 km/h
19:40 2.8 °C 1.5 °C -1.4 °C 91% 1013.5 hPa 0 W/m² 0.0 mm 0.000 mm 11.4 km/h
19:45 2.9 °C 1.6 °C -2.2 °C 91% 1013.3 hPa 0 W/m² 0.0 mm 0.000 mm 12.8 km/h
19:50 2.9 °C 1.4 °C -3.2 °C 90% 1013.3 hPa 0 W/m² 0.0 mm 0.000 mm 14.5 km/h
19:55 2.9 °C 1.4 °C -3.4 °C 90% 1013.1 hPa 0 W/m² 0.0 mm 0.000 mm 14.9 km/h
20:00 2.9 °C 1.6 °C -2.6 °C 91% 1013.2 hPa 0 W/m² 0.0 mm 0.000 mm 13.5 km/h
20:05 2.9 °C 1.6 °C -3.2 °C 91% 1013.2 hPa 0 W/m² 0.0 mm 0.000 mm 14.6 km/h
20:10 3.0 °C 1.7 °C -1.9 °C 91% 1013.1 hPa 0 W/m² 0.0 mm 0.000 mm 12.5 km/h
20:15 2.9 °C 1.6 °C -1.8 °C 91% 1013.2 hPa 0 W/m² 0.0 mm 0.000 mm 12.2 km/h
20:20 2.9 °C 1.4 °C -3.8 °C 90% 1013.0 hPa 0 W/m² 0.0 mm 0.000 mm 15.6 km/h
20:25 2.9 °C 1.4 °C 0.1 °C 90% 1012.9 hPa 0 W/m² 0.0 mm 0.000 mm 9.5 km/h
20:30 2.8 °C 1.3 °C -0.9 °C 90% 1013.0 hPa 0 W/m² 0.0 mm 0.000 mm 10.7 km/h
20:35 2.8 °C 1.3 °C -0.8 °C 90% 1012.9 hPa 0 W/m² 0.0 mm 0.000 mm 10.6 km/h
20:40 2.7 °C 1.2 °C 2.7 °C 90% 1012.9 hPa 0 W/m² 0.0 mm 0.000 mm 5.0 km/h
20:45 2.7 °C 1.2 °C 2.1 °C 90% 1013.0 hPa 0 W/m² 0.0 mm 0.000 mm 7.0 km/h
20:50 2.6 °C 1.0 °C -0.7 °C 89% 1013.2 hPa 0 W/m² 0.0 mm 0.000 mm 10.2 km/h
20:55 2.6 °C 1.0 °C -1.2 °C 89% 1013.1 hPa 0 W/m² 0.0 mm 0.000 mm 10.8 km/h
21:00 2.6 °C 1.0 °C -1.2 °C 89% 1013.1 hPa 0 W/m² 0.0 mm 0.000 mm 10.8 km/h
21:05 2.6 °C 0.8 °C 1.8 °C 88% 1013.0 hPa 0 W/m² 0.0 mm 0.000 mm 7.2 km/h
21:10 2.5 °C 0.7 °C 1.8 °C 88% 1012.9 hPa 0 W/m² 0.0 mm 0.000 mm 7.1 km/h
21:15 2.4 °C 0.6 °C 2.4 °C 88% 1012.9 hPa 0 W/m² 0.0 mm 0.000 mm 4.2 km/h